createdAt,value
2022-09-02T00:01:01.157Z,99.90
2022-09-02T00:03:31.492Z,99.90
2022-09-02T00:05:58.640Z,99.90
2022-09-02T00:08:25.925Z,99.90
2022-09-02T00:10:53.943Z,99.90
2022-09-02T00:13:21.788Z,99.90
2022-09-02T00:15:49.560Z,99.90
2022-09-02T00:18:18.084Z,99.90
2022-09-02T00:20:48.336Z,99.90
2022-09-02T00:23:16.726Z,99.90
2022-09-02T00:25:45.742Z,99.90
2022-09-02T00:28:15.456Z,99.90
2022-09-02T00:30:44.013Z,99.90
2022-09-02T00:33:12.392Z,99.90
2022-09-02T00:35:39.995Z,99.90
2022-09-02T00:38:08.007Z,99.90
2022-09-02T00:40:36.114Z,99.90
2022-09-02T00:43:07.821Z,99.90
2022-09-02T00:45:36.612Z,99.90
2022-09-02T00:48:06.478Z,99.90
2022-09-02T00:50:36.682Z,99.90
2022-09-02T00:53:12.398Z,99.90
2022-09-02T00:55:46.788Z,99.90
2022-09-02T00:58:30.081Z,99.90
2022-09-02T01:00:59.476Z,99.90
2022-09-02T01:03:30.666Z,99.90
2022-09-02T01:05:59.596Z,99.90
2022-09-02T01:08:34.651Z,99.90
2022-09-02T01:11:06.434Z,99.90
2022-09-02T01:13:39.113Z,99.90
2022-09-02T01:16:12.052Z,99.90
2022-09-02T01:18:40.508Z,99.90
2022-09-02T01:21:07.519Z,99.90
2022-09-02T01:23:36.258Z,99.90
2022-09-02T01:26:05.440Z,99.90
2022-09-02T01:28:33.670Z,99.90
2022-09-02T01:31:01.462Z,99.90
2022-09-02T01:33:29.118Z,99.90
2022-09-02T01:35:59.025Z,99.90
2022-09-02T01:38:26.577Z,99.90
2022-09-02T01:40:54.136Z,99.90
2022-09-02T01:43:26.786Z,99.90
2022-09-02T01:45:56.349Z,99.90
2022-09-02T01:48:24.002Z,99.90
2022-09-02T01:50:54.882Z,99.90
2022-09-02T01:53:22.181Z,99.90
2022-09-02T01:55:49.473Z,99.90
2022-09-02T01:58:16.452Z,99.90
2022-09-02T02:00:43.722Z,99.90
2022-09-02T02:03:11.130Z,99.90
2022-09-02T02:05:38.415Z,99.90
2022-09-02T02:08:06.452Z,99.90
2022-09-02T02:10:33.721Z,99.90
2022-09-02T02:13:01.882Z,99.90
2022-09-02T02:17:55.058Z,99.90
2022-09-02T02:20:22.420Z,99.90
2022-09-02T02:22:49.983Z,99.90
2022-09-02T02:25:18.855Z,99.90
2022-09-02T02:27:45.887Z,99.90
2022-09-02T02:30:14.843Z,99.90
2022-09-02T02:32:43.321Z,99.90
2022-09-02T02:35:11.439Z,99.90
2022-09-02T02:37:38.439Z,99.90
2022-09-02T02:40:07.437Z,99.90
2022-09-02T02:42:35.567Z,99.90
2022-09-02T02:45:03.521Z,99.90
2022-09-02T02:47:31.018Z,99.90
2022-09-02T02:49:57.994Z,99.90
2022-09-02T02:52:25.035Z,99.90
2022-09-02T02:54:52.674Z,99.90
2022-09-02T02:57:19.692Z,99.90
2022-09-02T02:59:46.758Z,99.90
2022-09-02T03:02:14.033Z,99.90
2022-09-02T03:04:41.258Z,99.90
2022-09-02T03:07:08.896Z,99.90
2022-09-02T03:09:36.859Z,99.90
2022-09-02T03:12:04.051Z,99.90
2022-09-02T03:14:31.629Z,99.90
2022-09-02T03:16:58.783Z,99.90
2022-09-02T03:19:25.815Z,99.90
2022-09-02T03:21:52.758Z,99.90
2022-09-02T03:24:20.803Z,99.90
2022-09-02T03:26:47.770Z,99.90
2022-09-02T03:29:15.251Z,99.90
2022-09-02T03:31:42.819Z,99.90
2022-09-02T03:34:12.430Z,99.90
2022-09-02T03:36:41.086Z,99.90
2022-09-02T03:39:10.766Z,99.90
2022-09-02T03:41:41.356Z,99.90
2022-09-02T03:44:10.348Z,99.90
2022-09-02T03:46:37.652Z,99.90
2022-09-02T03:49:05.304Z,99.90
2022-09-02T03:51:32.836Z,99.90
2022-09-02T03:54:00.253Z,99.90
2022-09-02T03:56:27.525Z,99.90
2022-09-02T03:58:55.642Z,99.90
2022-09-02T04:01:25.030Z,99.90
2022-09-02T04:03:56.835Z,99.90
2022-09-02T04:06:26.237Z,99.90
2022-09-02T04:09:00.982Z,99.90
2022-09-02T04:11:29.262Z,99.90
2022-09-02T04:13:56.617Z,99.90
2022-09-02T04:16:29.287Z,99.90
2022-09-02T04:18:59.916Z,99.90
2022-09-02T04:21:27.216Z,99.90
2022-09-02T04:23:54.755Z,99.90
2022-09-02T04:26:23.052Z,99.90
2022-09-02T04:28:51.136Z,99.90
2022-09-02T04:31:21.883Z,99.90
2022-09-02T04:33:49.350Z,99.90
2022-09-02T04:36:18.664Z,99.90
2022-09-02T04:38:47.799Z,99.90
2022-09-02T04:41:23.015Z,99.90
2022-09-02T04:43:51.482Z,99.90
2022-09-02T04:46:19.148Z,99.90
2022-09-02T04:48:57.458Z,99.90
2022-09-02T04:51:27.023Z,99.90
2022-09-02T04:53:54.955Z,99.90
2022-09-02T04:56:25.272Z,99.90
2022-09-02T04:58:54.678Z,99.90
2022-09-02T05:01:35.243Z,99.90
2022-09-02T05:04:09.769Z,99.90
2022-09-02T05:06:41.916Z,99.90
2022-09-02T05:09:12.420Z,99.90
2022-09-02T05:11:40.491Z,99.90
2022-09-02T05:14:08.381Z,99.90
2022-09-02T05:16:40.123Z,99.90
2022-09-02T05:19:10.237Z,99.90
2022-09-02T05:21:43.698Z,99.90
2022-09-02T05:24:11.392Z,99.90
2022-09-02T05:26:40.667Z,99.90
2022-09-02T05:29:08.507Z,99.90
2022-09-02T05:31:36.538Z,99.90
2022-09-02T05:34:05.345Z,99.90
2022-09-02T05:36:33.592Z,99.90
2022-09-02T05:39:02.266Z,99.90
2022-09-02T05:41:30.469Z,99.90
2022-09-02T05:44:01.564Z,99.90
2022-09-02T05:46:32.758Z,99.90
2022-09-02T05:49:07.043Z,99.90
2022-09-02T05:51:49.386Z,99.90
2022-09-02T05:54:21.551Z,99.90
2022-09-02T05:56:52.979Z,99.90
2022-09-02T05:59:22.018Z,99.90
2022-09-02T06:01:52.302Z,99.90
2022-09-02T06:04:22.085Z,99.90
2022-09-02T06:06:50.817Z,99.90
2022-09-02T06:09:21.758Z,99.90
2022-09-02T06:11:50.820Z,99.90
2022-09-02T06:14:21.914Z,99.90
2022-09-02T06:16:55.185Z,99.90
2022-09-02T06:19:25.370Z,99.90
2022-09-02T06:21:54.861Z,99.90
2022-09-02T06:24:23.350Z,99.90
2022-09-02T06:26:50.789Z,99.90
2022-09-02T06:29:25.985Z,99.80
2022-09-02T06:31:54.858Z,98.30
2022-09-02T06:34:25.765Z,97.90
2022-09-02T06:36:54.049Z,97.00
2022-09-02T06:39:23.824Z,95.40
2022-09-02T06:41:51.039Z,93.70
2022-09-02T06:44:21.832Z,92.10
2022-09-02T06:46:56.273Z,90.20
2022-09-02T06:49:25.818Z,83.70
2022-09-02T06:51:55.786Z,83.70
2022-09-02T06:54:24.294Z,85.30
2022-09-02T06:56:53.638Z,79.80
2022-09-02T06:59:22.005Z,80.20
2022-09-02T07:01:51.639Z,75.50
2022-09-02T07:04:37.785Z,76.20
2022-09-02T07:07:08.438Z,73.30
2022-09-02T07:09:36.162Z,69.30
2022-09-02T07:12:05.927Z,68.00
2022-09-02T07:14:38.374Z,67.20
2022-09-02T07:17:07.195Z,66.20
2022-09-02T07:19:34.943Z,64.50
2022-09-02T07:22:07.230Z,64.20
2022-09-02T07:24:36.869Z,62.50
2022-09-02T07:27:04.891Z,63.50
2022-09-02T07:29:33.091Z,60.10
2022-09-02T07:32:00.866Z,60.40
2022-09-02T07:34:29.527Z,60.20
2022-09-02T07:37:02.622Z,60.60
2022-09-02T07:39:32.710Z,59.40
2022-09-02T07:42:01.035Z,59.60
2022-09-02T07:44:28.631Z,59.30
2022-09-02T07:46:56.376Z,59.50
2022-09-02T07:49:24.397Z,58.30
2022-09-02T07:51:52.507Z,56.30
2022-09-02T07:54:24.414Z,56.40
2022-09-02T07:56:51.927Z,55.30
2022-09-02T07:59:21.652Z,55.60
2022-09-02T08:01:51.770Z,54.40
2022-09-02T08:04:23.553Z,52.30
2022-09-02T08:06:54.723Z,52.80
2022-09-02T08:09:22.796Z,50.80
2022-09-02T08:11:51.577Z,52.40
2022-09-02T08:14:26.278Z,52.90
2022-09-02T08:16:55.820Z,51.90
2022-09-02T08:19:24.921Z,51.80
2022-09-02T08:21:52.708Z,50.20
2022-09-02T08:24:20.903Z,50.00
2022-09-02T08:26:49.013Z,51.00
2022-09-02T08:29:17.247Z,52.30
2022-09-02T08:31:48.639Z,51.10
2022-09-02T08:34:19.164Z,50.90
2022-09-02T08:36:56.066Z,49.10
2022-09-02T08:39:25.758Z,49.60
2022-09-02T08:42:21.534Z,50.40
2022-09-02T08:44:55.418Z,51.10
2022-09-02T08:47:29.928Z,51.20
2022-09-02T08:50:02.141Z,49.90
2022-09-02T08:52:42.703Z,49.60
2022-09-02T08:55:18.920Z,50.10
2022-09-02T08:57:47.381Z,49.60
2022-09-02T09:00:16.067Z,49.30
2022-09-02T09:03:15.762Z,49.80
2022-09-02T09:05:48.164Z,49.20
2022-09-02T09:08:46.870Z,46.30
2022-09-02T09:11:42.965Z,44.80
2022-09-02T09:14:25.179Z,45.90
2022-09-02T09:16:59.945Z,45.50
2022-09-02T09:19:37.406Z,45.00
2022-09-02T09:22:05.975Z,44.60
2022-09-02T09:24:46.563Z,43.40
2022-09-02T09:27:17.942Z,42.00
2022-09-02T09:29:46.123Z,41.60
2022-09-02T09:32:21.552Z,43.20
2022-09-02T09:35:00.378Z,43.50
2022-09-02T09:37:36.132Z,47.90
2022-09-02T09:40:22.714Z,48.70
2022-09-02T09:42:57.309Z,44.10
2022-09-02T09:45:37.894Z,43.50
2022-09-02T09:48:18.384Z,45.50
2022-09-02T09:50:48.587Z,44.60
2022-09-02T09:53:48.569Z,44.60
2022-09-02T09:56:16.621Z,48.10
2022-09-02T09:58:47.202Z,51.90
2022-09-02T10:01:17.814Z,54.60
2022-09-02T10:04:32.260Z,57.60
2022-09-02T10:06:58.311Z,58.90
2022-09-02T10:09:36.382Z,62.40
2022-09-02T10:12:12.938Z,65.00
2022-09-02T10:14:47.212Z,67.40
2022-09-02T10:17:34.106Z,68.20
2022-09-02T10:20:23.027Z,68.20
2022-09-02T10:23:00.733Z,70.40
2022-09-02T10:25:59.209Z,70.70
2022-09-02T10:28:54.254Z,69.00
2022-09-02T10:32:01.276Z,71.20
2022-09-02T10:34:38.184Z,74.00
2022-09-02T10:37:20.458Z,77.80
2022-09-02T10:40:06.971Z,76.40
2022-09-02T10:42:41.245Z,72.70
2022-09-02T10:45:31.340Z,74.00
2022-09-02T10:48:34.999Z,74.60
2022-09-02T10:51:22.057Z,75.10
2022-09-02T10:54:14.693Z,74.70
2022-09-02T10:57:02.025Z,73.40
2022-09-02T11:00:04.691Z,74.60
2022-09-02T11:02:45.287Z,72.30
2022-09-02T11:05:21.643Z,77.90
2022-09-02T11:08:01.305Z,75.40
2022-09-02T11:10:37.974Z,71.20
2022-09-02T11:13:20.975Z,71.00
2022-09-02T11:16:02.590Z,73.60
2022-09-02T11:18:45.757Z,74.00
2022-09-02T11:21:44.611Z,70.80
2022-09-02T11:24:42.167Z,68.60
2022-09-02T11:27:32.490Z,73.80
2022-09-02T11:30:15.713Z,72.40
2022-09-02T11:33:31.308Z,73.60
2022-09-02T11:36:00.457Z,75.30
2022-09-02T11:38:43.687Z,70.90
2022-09-02T11:41:36.641Z,68.60
2022-09-02T11:44:19.522Z,68.10
2022-09-02T11:47:00.436Z,71.70
2022-09-02T11:49:41.367Z,66.60
2022-09-02T11:52:32.984Z,70.10
2022-09-02T11:55:23.020Z,68.70
2022-09-02T11:57:57.758Z,69.90
2022-09-02T12:00:33.362Z,71.80
2022-09-02T12:03:28.505Z,67.00
2022-09-02T12:06:14.943Z,68.60
2022-09-02T12:08:43.540Z,69.70
2022-09-02T12:11:38.269Z,66.20
2022-09-02T12:14:26.298Z,69.10
2022-09-02T12:17:03.969Z,64.40
2022-09-02T12:19:45.997Z,64.70
2022-09-02T12:22:17.749Z,65.00
2022-09-02T12:24:53.891Z,66.50
2022-09-02T12:27:29.086Z,70.10
2022-09-02T12:29:59.537Z,67.20
2022-09-02T12:33:03.687Z,68.00
2022-09-02T12:35:37.169Z,66.40
2022-09-02T12:38:11.104Z,66.30
2022-09-02T12:40:51.476Z,67.10
2022-09-02T12:43:37.293Z,66.40
2022-09-02T12:46:32.326Z,66.20
2022-09-02T12:49:12.371Z,67.50
2022-09-02T12:51:57.589Z,69.70
2022-09-02T12:54:30.644Z,68.00
2022-09-02T12:56:59.240Z,66.10
2022-09-02T12:59:34.743Z,69.40
2022-09-02T13:02:14.515Z,67.80
2022-09-02T13:04:53.481Z,66.10
2022-09-02T13:07:43.920Z,66.90
2022-09-02T13:10:45.958Z,67.80
2022-09-02T13:13:35.932Z,68.80
2022-09-02T13:16:18.521Z,67.40
2022-09-02T13:19:07.640Z,69.60
2022-09-02T13:22:10.709Z,66.90
2022-09-02T13:24:56.736Z,68.00
2022-09-02T13:28:02.870Z,66.90
2022-09-02T13:30:55.769Z,68.80
2022-09-02T13:33:24.172Z,68.10
2022-09-02T13:35:59.482Z,67.90
2022-09-02T13:38:30.562Z,67.00
2022-09-02T13:40:58.499Z,65.00
2022-09-02T13:43:27.534Z,68.30
2022-09-02T13:46:02.513Z,69.00
2022-09-02T13:48:34.092Z,63.50
2022-09-02T13:51:23.496Z,64.50
2022-09-02T13:54:22.979Z,65.00
2022-09-02T13:56:41.964Z,67.10
2022-09-02T13:59:10.372Z,68.60
2022-09-02T14:01:42.579Z,67.90
2022-09-02T14:04:15.706Z,68.30
2022-09-02T14:06:47.233Z,69.60
2022-09-02T14:09:27.306Z,68.20
2022-09-02T14:11:56.987Z,70.60
2022-09-02T14:14:26.610Z,71.70
2022-09-02T14:17:21.709Z,71.40
2022-09-02T14:19:50.886Z,70.70
2022-09-02T14:22:30.886Z,71.00
2022-09-02T14:25:00.095Z,68.20
2022-09-02T14:27:27.969Z,70.40
2022-09-02T14:29:58.797Z,69.80
2022-09-02T14:32:29.506Z,69.00
2022-09-02T14:35:28.574Z,68.50
2022-09-02T14:37:59.939Z,68.80
2022-09-02T14:40:41.323Z,70.90
2022-09-02T14:43:14.936Z,67.50
2022-09-02T14:45:50.406Z,68.90
2022-09-02T14:48:27.610Z,68.60
2022-09-02T14:51:05.909Z,70.20
2022-09-02T14:53:38.406Z,70.40
2022-09-02T14:56:07.491Z,70.30
2022-09-02T14:58:36.214Z,69.40
2022-09-02T15:01:05.301Z,69.00
2022-09-02T15:03:38.629Z,67.80
2022-09-02T15:06:10.883Z,69.00
2022-09-02T15:08:44.679Z,69.90
2022-09-02T15:11:17.118Z,68.80
2022-09-02T15:13:44.857Z,70.70
2022-09-02T15:16:13.001Z,69.80
2022-09-02T15:18:41.448Z,69.50
2022-09-02T15:21:09.858Z,68.80
2022-09-02T15:23:41.176Z,67.40
2022-09-02T15:26:10.089Z,68.50
2022-09-02T15:28:39.418Z,70.60
2022-09-02T15:31:08.805Z,71.60
2022-09-02T15:33:38.119Z,70.60
2022-09-02T15:36:08.948Z,71.90
2022-09-02T15:38:38.191Z,71.80
2022-09-02T15:41:13.295Z,70.90
2022-09-02T15:43:42.346Z,71.30
2022-09-02T15:46:30.452Z,71.00
2022-09-02T15:49:03.829Z,71.70
2022-09-02T15:51:35.619Z,70.00
2022-09-02T15:54:07.187Z,71.50
2022-09-02T15:56:38.147Z,71.90
2022-09-02T15:59:12.836Z,73.70
2022-09-02T16:01:44.388Z,71.80
2022-09-02T16:04:13.981Z,70.70
2022-09-02T16:06:45.482Z,70.50
2022-09-02T16:09:14.788Z,70.80
2022-09-02T16:11:45.607Z,71.80
2022-09-02T16:14:20.640Z,72.10
2022-09-02T16:16:51.056Z,73.80
2022-09-02T16:19:24.322Z,73.50
2022-09-02T16:21:53.712Z,75.00
2022-09-02T16:24:23.335Z,75.00
2022-09-02T16:26:51.742Z,75.10
2022-09-02T16:29:20.432Z,76.10
2022-09-02T16:32:02.260Z,75.90
2022-09-02T16:34:37.514Z,76.90
2022-09-02T16:37:08.248Z,79.30
2022-09-02T16:39:36.802Z,80.00
2022-09-02T16:42:05.229Z,81.30
2022-09-02T16:44:34.459Z,82.10
2022-09-02T16:47:01.844Z,83.60
2022-09-02T16:49:29.606Z,83.10
2022-09-02T16:51:59.809Z,83.80
2022-09-02T16:54:36.283Z,86.30
2022-09-02T16:57:08.339Z,89.30
2022-09-02T16:59:36.690Z,91.00
2022-09-02T17:02:04.495Z,91.70
2022-09-02T17:04:33.355Z,92.80
2022-09-02T17:07:01.079Z,95.10
2022-09-02T17:09:28.876Z,96.10
2022-09-02T17:11:57.377Z,96.40
2022-09-02T17:14:25.889Z,97.30
2022-09-02T17:16:53.860Z,98.30
2022-09-02T17:19:22.851Z,99.40
2022-09-02T17:21:53.111Z,99.70
2022-09-02T17:24:23.755Z,99.90
2022-09-02T17:26:56.587Z,99.90
2022-09-02T17:32:15.246Z,99.90
2022-09-02T17:34:43.394Z,99.90
2022-09-02T17:37:11.937Z,99.90
2022-09-02T17:39:41.303Z,99.90
2022-09-02T17:42:09.295Z,99.90
2022-09-02T17:44:39.475Z,99.90
2022-09-02T17:47:16.687Z,99.90
2022-09-02T17:49:45.120Z,99.90
2022-09-02T17:52:15.119Z,99.90
2022-09-02T17:54:43.781Z,99.90
2022-09-02T17:57:33.773Z,99.90
2022-09-02T18:00:14.992Z,99.90
2022-09-02T18:03:31.395Z,99.90
2022-09-02T18:06:08.441Z,99.90
2022-09-02T18:08:40.273Z,99.90
2022-09-02T18:11:07.942Z,99.90
2022-09-02T18:13:41.151Z,99.90
2022-09-02T18:16:15.181Z,99.90
2022-09-02T18:19:13.978Z,99.90
2022-09-02T18:22:16.400Z,99.90
2022-09-02T18:25:15.072Z,99.90
2022-09-02T18:28:10.517Z,99.90
2022-09-02T18:30:59.025Z,99.90
2022-09-02T18:33:56.707Z,99.90
2022-09-02T18:36:31.697Z,99.90
2022-09-02T18:39:39.649Z,99.90
2022-09-02T18:42:13.792Z,99.90
2022-09-02T18:45:21.787Z,99.90
2022-09-02T18:48:01.345Z,99.90
2022-09-02T18:50:50.937Z,99.90
2022-09-02T18:53:23.267Z,99.90
2022-09-02T18:55:52.570Z,99.90
2022-09-02T18:58:35.010Z,99.90
2022-09-02T19:01:30.211Z,99.90
2022-09-02T19:04:01.494Z,99.90
2022-09-02T19:06:35.990Z,99.90
2022-09-02T19:09:14.442Z,99.90
2022-09-02T19:11:42.314Z,99.90
2022-09-02T19:14:21.566Z,99.90
2022-09-02T19:16:50.200Z,99.90
2022-09-02T19:19:19.160Z,99.90
2022-09-02T19:22:02.747Z,99.90
2022-09-02T19:24:43.032Z,99.90
2022-09-02T19:27:14.110Z,99.90
2022-09-02T19:29:46.217Z,99.90
2022-09-02T19:32:14.110Z,99.90
2022-09-02T19:34:45.050Z,99.90
2022-09-02T19:37:14.243Z,99.90
2022-09-02T19:39:41.320Z,99.90
2022-09-02T19:42:09.142Z,99.90
2022-09-02T19:44:37.187Z,99.90
2022-09-02T19:48:04.966Z,99.90
2022-09-02T19:49:53.658Z,99.90
2022-09-02T19:52:20.868Z,99.90
2022-09-02T19:54:50.750Z,99.90
2022-09-02T19:57:17.835Z,99.90
2022-09-02T19:59:44.862Z,99.90
2022-09-02T20:02:12.419Z,99.90
2022-09-02T20:04:40.569Z,99.90
2022-09-02T20:07:08.070Z,99.90
2022-09-02T20:09:35.118Z,99.90
2022-09-02T20:12:02.462Z,99.90
2022-09-02T20:14:29.847Z,99.90
2022-09-02T20:17:05.353Z,99.90
2022-09-02T20:19:35.081Z,99.90
2022-09-02T20:22:06.285Z,99.90
2022-09-02T20:24:35.063Z,99.90
2022-09-02T20:27:31.582Z,99.90
2022-09-02T20:30:14.428Z,99.90
2022-09-02T20:33:05.740Z,99.90
2022-09-02T20:35:39.423Z,99.90
2022-09-02T20:38:13.002Z,99.90
2022-09-02T20:41:24.769Z,99.90
2022-09-02T20:44:18.965Z,99.90
2022-09-02T20:47:06.979Z,99.90
2022-09-02T20:49:59.160Z,99.90
2022-09-02T20:52:44.331Z,99.90
2022-09-02T20:55:21.821Z,99.90
2022-09-02T20:58:18.048Z,99.90
2022-09-02T21:01:08.403Z,99.90
2022-09-02T21:04:12.371Z,99.90
2022-09-02T21:06:45.214Z,99.90
2022-09-02T21:09:36.469Z,99.90
2022-09-02T21:12:18.983Z,99.90
2022-09-02T21:15:00.583Z,99.90
2022-09-02T21:17:37.993Z,99.90
2022-09-02T21:20:29.898Z,99.90
2022-09-02T21:23:01.159Z,99.90
2022-09-02T21:25:40.409Z,99.90
2022-09-02T21:28:17.508Z,99.90
2022-09-02T21:30:55.581Z,99.90
2022-09-02T21:33:28.387Z,99.90
2022-09-02T21:35:58.985Z,99.90
2022-09-02T21:38:44.691Z,99.90
2022-09-02T21:41:35.219Z,99.90
2022-09-02T21:44:07.376Z,99.90
2022-09-02T21:46:44.180Z,99.90
2022-09-02T21:49:32.758Z,99.90
2022-09-02T21:52:25.319Z,99.90
2022-09-02T21:55:19.980Z,99.90
2022-09-02T21:58:28.855Z,99.90
2022-09-02T22:01:06.545Z,99.90
2022-09-02T22:03:50.777Z,99.90
2022-09-02T22:06:30.393Z,99.90
2022-09-02T22:09:11.861Z,99.90
2022-09-02T22:11:59.087Z,99.90
2022-09-02T22:14:33.910Z,99.90
2022-09-02T22:17:27.819Z,99.90
2022-09-02T22:19:59.363Z,99.90
2022-09-02T22:22:35.092Z,99.90
2022-09-02T22:25:02.296Z,99.90
2022-09-02T22:31:36.110Z,99.90
2022-09-02T22:34:07.659Z,99.90
2022-09-02T22:36:49.140Z,99.90
2022-09-02T22:39:17.930Z,99.90
2022-09-02T22:42:08.116Z,99.90
2022-09-02T22:45:03.658Z,99.90
2022-09-02T22:47:51.801Z,99.90
2022-09-02T22:50:43.952Z,99.90
2022-09-02T22:53:12.886Z,99.90
2022-09-02T22:55:53.836Z,99.90
2022-09-02T22:58:31.254Z,99.90
2022-09-02T23:01:11.390Z,99.90
2022-09-02T23:03:59.450Z,99.90
2022-09-02T23:06:29.651Z,99.90
2022-09-02T23:09:08.795Z,99.90
2022-09-02T23:12:03.568Z,99.90
2022-09-02T23:14:48.838Z,99.90
2022-09-02T23:17:39.995Z,99.90
2022-09-02T23:20:25.389Z,99.90
2022-09-02T23:23:31.986Z,99.90
2022-09-02T23:26:43.104Z,99.90
2022-09-02T23:29:35.943Z,99.90
2022-09-02T23:32:24.136Z,99.90
2022-09-02T23:35:20.289Z,99.90
2022-09-02T23:37:53.255Z,99.90
2022-09-02T23:40:28.034Z,99.90
2022-09-02T23:42:59.498Z,99.90
2022-09-02T23:45:32.887Z,99.90
2022-09-02T23:48:09.281Z,99.90
2022-09-02T23:50:49.072Z,99.90
2022-09-02T23:53:25.393Z,99.90
2022-09-02T23:55:53.524Z,99.90
2022-09-02T23:58:41.415Z,99.90
